LFBP/PUF METAR and TAF weather

Enter ICAO airport designator
Station Type Date Time Source
LFBP METAR 2020/11/28 20:00 UTC NOAA

LFBP 282000Z AUTO 10002KT CAVOK 11/09 Q1010 NOSIG


Station Type Date Time Source
LFBP Decoded METAR 2020/11/28 20:00 UTC NOAA

Pau, France (LFBP) 43-23N 000-25W 185M
Nov 28, 2020 - 03:00 PM EST / 2020.11.28 2000 UTC
Wind: from the E (100 degrees) at 2 MPH (2 KT):0
Visibility: greater than 7 mile(s):0
Temperature: 51 F (11 C)
Dew Point: 48 F (9 C)
Relative Humidity: 87%
Pressure (altimeter): 29.83 in. Hg (1010 hPa)
ob: LFBP 282000Z AUTO 10002KT CAVOK 11/09 Q1010 NOSIG
cycle: 20

Station Type Date Time Source
LFBP TAF 2020/11/28 18:21 UTC NOAA

TAF LFBP 281700Z 2818/2918 09005KT CAVOK
BECMG 2822/2824 3000 BR PROB40
TEMPO 2900/2907 0300 FG VV///
BECMG 2908/2909 CAVOK

Example: see airport list